Time;durP1;ratioP1;P1;durP2;ratioP2;P2;SDS_P1;SDS_P2;PMS_P1;PMS_P2;Temp;Humidity;BMP_temperature;BMP_pressure;BME280_temperature;BME280_humidity;BME280_pressure;Samples;Min_cycle;Max_cycle;Signal;HPM_P1;HPM_P2
2021/07/18 00:00:32;;;;;;;6.00;4.27;;;18.10;99.90;;;;;;5034171;28;20234;-71
2021/07/18 00:02:57;;;;;;;7.03;3.77;;;18.00;99.90;;;;;;5033231;28;20204;-70
2021/07/18 00:05:23;;;;;;;6.77;3.60;;;18.00;99.90;;;;;;5033949;28;20535;-71
2021/07/18 00:07:49;;;;;;;10.20;5.00;;;18.00;99.90;;;;;;5034034;28;20177;-71
2021/07/18 00:10:15;;;;;;;8.23;4.67;;;18.00;99.90;;;;;;5033263;28;20714;-71
2021/07/18 00:12:41;;;;;;;4.30;3.90;;;18.00;99.90;;;;;;5032368;28;20409;-70
2021/07/18 00:15:09;;;;;;;6.37;4.93;;;18.00;99.90;;;;;;5033781;28;20491;-71
2021/07/18 00:17:39;;;;;;;8.07;4.30;;;17.90;99.90;;;;;;5033146;28;20455;-70
2021/07/18 00:20:13;;;;;;;4.33;3.27;;;17.90;99.90;;;;;;5033782;28;20458;-70
2021/07/18 00:22:39;;;;;;;6.23;3.80;;;17.90;99.90;;;;;;5032610;28;20405;-71
2021/07/18 00:25:06;;;;;;;6.83;3.97;;;17.90;99.90;;;;;;5033717;28;20416;-70
2021/07/18 00:27:32;;;;;;;5.17;4.20;;;17.90;99.90;;;;;;5032957;28;20463;-70
2021/07/18 00:29:57;;;;;;;6.03;3.80;;;17.90;99.90;;;;;;5032073;28;20547;-71
2021/07/18 00:32:23;;;;;;;6.23;4.80;;;17.80;99.90;;;;;;5032430;28;20176;-70
2021/07/18 00:34:49;;;;;;;4.47;3.50;;;17.90;99.90;;;;;;5032372;28;20916;-70
2021/07/18 00:37:14;;;;;;;5.70;3.77;;;17.80;99.90;;;;;;5033450;28;20319;-71
2021/07/18 00:39:40;;;;;;;6.47;4.07;;;17.80;99.90;;;;;;5033408;28;20260;-71
2021/07/18 00:42:05;;;;;;;7.67;4.03;;;17.80;99.90;;;;;;5033394;28;20264;-70
2021/07/18 00:44:31;;;;;;;9.17;4.30;;;17.80;99.90;;;;;;5032889;28;20177;-71
2021/07/18 00:46:57;;;;;;;7.37;3.50;;;17.80;99.90;;;;;;5032029;28;20174;-71
2021/07/18 00:49:22;;;;;;;7.20;3.77;;;17.80;99.90;;;;;;5033112;28;20216;-70
2021/07/18 00:51:48;;;;;;;4.37;3.93;;;17.80;99.90;;;;;;5032201;28;20627;-71
2021/07/18 00:54:15;;;;;;;5.27;3.57;;;17.80;99.90;;;;;;5033033;28;20182;-71
2021/07/18 00:56:41;;;;;;;9.43;4.07;;;17.70;99.90;;;;;;5031863;28;20174;-71
2021/07/18 00:59:07;;;;;;;4.40;4.00;;;17.70;99.90;;;;;;5033072;28;20478;-71
2021/07/18 01:01:33;;;;;;;7.70;4.50;;;17.70;99.90;;;;;;5032230;28;20521;-71
2021/07/18 01:03:58;;;;;;;6.63;4.20;;;17.70;99.90;;;;;;5032448;28;20170;-71
2021/07/18 01:06:24;;;;;;;4.50;3.40;;;17.60;99.90;;;;;;5032940;28;20178;-70
2021/07/18 01:08:51;;;;;;;4.37;3.10;;;17.60;99.90;;;;;;5032082;28;20676;-70
2021/07/18 01:11:17;;;;;;;6.20;3.60;;;17.60;99.90;;;;;;5033107;28;20417;-70
2021/07/18 01:13:43;;;;;;;4.30;3.90;;;17.60;99.90;;;;;;5032867;28;20764;-70
2021/07/18 01:16:09;;;;;;;3.70;2.80;;;17.60;99.90;;;;;;5031030;28;20412;-70
2021/07/18 01:18:35;;;;;;;5.00;3.93;;;17.60;99.90;;;;;;5032011;28;20409;-70
2021/07/18 01:21:03;;;;;;;4.50;4.13;;;17.50;99.90;;;;;;5018242;28;21132;-71
2021/07/18 01:23:30;;;;;;;5.13;3.40;;;17.60;99.90;;;;;;5006456;28;20256;-71
2021/07/18 01:25:56;;;;;;;6.70;4.20;;;17.60;99.90;;;;;;5010019;28;20767;-71
2021/07/18 01:28:22;;;;;;;6.80;4.00;;;17.50;99.90;;;;;;5004248;28;20433;-71
2021/07/18 01:30:48;;;;;;;9.53;5.23;;;17.60;99.90;;;;;;5014234;28;20210;-70
2021/07/18 01:33:14;;;;;;;7.53;4.67;;;17.50;99.90;;;;;;5022028;28;20429;-71
2021/07/18 01:35:39;;;;;;;8.70;3.97;;;17.50;99.90;;;;;;5020448;28;20428;-71
2021/07/18 01:38:07;;;;;;;4.90;4.40;;;17.50;99.90;;;;;;5019764;28;20204;-71
2021/07/18 01:40:33;;;;;;;6.03;4.00;;;17.50;99.90;;;;;;5011278;28;20255;-71
2021/07/18 01:42:58;;;;;;;6.20;4.67;;;17.50;99.90;;;;;;5006075;28;20425;-71
2021/07/18 01:45:24;;;;;;;6.13;4.20;;;17.50;99.90;;;;;;5019976;28;20542;-71
2021/07/18 01:47:50;;;;;;;4.63;4.20;;;17.50;99.90;;;;;;5020352;28;20186;-71
2021/07/18 01:50:16;;;;;;;4.97;4.00;;;17.40;99.90;;;;;;5015235;28;20947;-71
2021/07/18 01:52:42;;;;;;;5.17;4.70;;;17.40;99.90;;;;;;5017786;28;20182;-71
2021/07/18 01:55:10;;;;;;;7.00;5.90;;;17.40;99.90;;;;;;5018888;28;20488;-71
2021/07/18 01:57:35;;;;;;;9.30;6.60;;;17.30;99.90;;;;;;5003928;28;20436;-71
2021/07/18 02:00:01;;;;;;;6.80;4.67;;;17.30;99.90;;;;;;5020149;28;20899;-71
2021/07/18 02:02:27;;;;;;;5.83;5.10;;;17.30;99.90;;;;;;5017972;28;20301;-71
2021/07/18 02:04:52;;;;;;;8.23;4.70;;;17.30;99.90;;;;;;5011490;28;20182;-71
2021/07/18 02:07:18;;;;;;;5.43;4.93;;;17.30;99.90;;;;;;5028116;28;20186;-71
2021/07/18 02:09:44;;;;;;;7.40;4.63;;;17.20;99.90;;;;;;5023446;28;20210;-71
2021/07/18 02:12:10;;;;;;;5.83;4.87;;;17.30;99.90;;;;;;5024397;28;20509;-71
2021/07/18 02:14:38;;;;;;;6.73;5.20;;;17.20;99.90;;;;;;5023710;28;20435;-71
2021/07/18 02:17:05;;;;;;;6.83;5.27;;;17.20;99.90;;;;;;5019698;28;20425;-71
2021/07/18 02:19:31;;;;;;;8.80;6.60;;;17.10;99.90;;;;;;5021902;28;20478;-71
2021/07/18 02:21:57;;;;;;;6.97;5.50;;;17.20;99.90;;;;;;5024229;28;20496;-71
2021/07/18 02:24:23;;;;;;;6.50;4.87;;;17.10;99.90;;;;;;5022149;28;20447;-71
2021/07/18 02:26:49;;;;;;;14.53;5.87;;;17.20;99.90;;;;;;5025685;28;20265;-71
2021/07/18 02:29:15;;;;;;;6.13;5.50;;;17.10;99.90;;;;;;5020622;28;20204;-71
2021/07/18 02:31:41;;;;;;;9.07;5.20;;;17.10;99.90;;;;;;5029559;28;20413;-71
2021/07/18 02:34:06;;;;;;;8.60;5.30;;;17.10;99.90;;;;;;5023886;28;20601;-71
2021/07/18 02:36:33;;;;;;;6.13;5.13;;;17.00;99.90;;;;;;5029089;28;20570;-71
2021/07/18 02:38:59;;;;;;;6.03;4.50;;;16.90;99.90;;;;;;5026078;28;20569;-71
2021/07/18 02:41:26;;;;;;;5.03;4.33;;;16.90;99.90;;;;;;5023899;28;20425;-71
2021/07/18 02:43:52;;;;;;;6.77;5.00;;;16.80;99.90;;;;;;5026412;28;20174;-71
2021/07/18 02:46:19;;;;;;;5.53;4.63;;;16.80;99.90;;;;;;5030685;28;20755;-70
2021/07/18 02:48:45;;;;;;;10.70;5.33;;;16.80;99.90;;;;;;5022641;28;20432;-70
2021/07/18 02:51:10;;;;;;;6.33;4.53;;;16.80;99.90;;;;;;5020992;28;20764;-70
2021/07/18 02:53:36;;;;;;;5.73;4.97;;;16.80;99.90;;;;;;5027850;28;20649;-71
2021/07/18 02:56:01;;;;;;;5.30;4.80;;;16.90;99.90;;;;;;5025829;28;20182;-71
2021/07/18 02:58:27;;;;;;;7.93;5.40;;;16.90;99.90;;;;;;5028210;28;20195;-70
2021/07/18 03:00:53;;;;;;;4.50;4.10;;;16.90;99.90;;;;;;5029148;28;20182;-71
2021/07/18 03:03:19;;;;;;;6.73;4.50;;;16.80;99.90;;;;;;5031459;28;20219;-70
2021/07/18 03:05:45;;;;;;;8.03;5.23;;;16.80;99.90;;;;;;5030030;28;20173;-70
2021/07/18 03:08:11;;;;;;;6.83;5.70;;;16.80;99.90;;;;;;5030501;28;20437;-70
2021/07/18 03:10:37;;;;;;;7.27;5.17;;;16.80;99.90;;;;;;5028920;28;20486;-70
2021/07/18 03:13:02;;;;;;;6.43;4.97;;;16.80;99.90;;;;;;5027273;28;20172;-70
2021/07/18 03:15:28;;;;;;;5.47;4.30;;;16.70;99.90;;;;;;5029992;28;20174;-70
2021/07/18 03:17:54;;;;;;;6.97;4.73;;;16.70;99.90;;;;;;5030694;28;20174;-70
2021/07/18 03:20:19;;;;;;;9.97;6.17;;;16.60;99.90;;;;;;5028778;28;20178;-71
2021/07/18 03:22:46;;;;;;;6.50;5.30;;;16.60;99.90;;;;;;5029152;28;20181;-70
2021/07/18 03:25:13;;;;;;;6.63;5.90;;;16.60;99.90;;;;;;5026713;28;20175;-71
2021/07/18 03:27:39;;;;;;;6.73;5.67;;;16.60;99.90;;;;;;5032341;28;20516;-70
2021/07/18 03:30:08;;;;;;;6.57;5.90;;;16.60;99.90;;;;;;5026194;28;20456;-70
2021/07/18 03:32:34;;;;;;;11.90;5.50;;;16.60;99.90;;;;;;5030902;28;20460;-71
2021/07/18 03:35:01;;;;;;;9.90;6.70;;;16.60;99.90;;;;;;5023532;28;20819;-70
2021/07/18 03:37:27;;;;;;;10.10;7.27;;;16.60;99.90;;;;;;5030555;28;20455;-71
2021/07/18 03:39:52;;;;;;;10.23;6.43;;;16.60;99.90;;;;;;5030297;28;20909;-70
2021/07/18 03:42:18;;;;;;;9.90;7.03;;;16.70;99.90;;;;;;5028958;28;20435;-70
2021/07/18 03:44:44;;;;;;;8.90;6.40;;;16.70;99.90;;;;;;5028798;28;20232;-70
2021/07/18 03:47:10;;;;;;;7.00;5.07;;;16.60;99.90;;;;;;5027020;28;20273;-71
2021/07/18 03:49:35;;;;;;;7.27;6.57;;;16.60;99.90;;;;;;5030542;28;20209;-71
2021/07/18 03:52:01;;;;;;;9.87;6.53;;;16.70;99.90;;;;;;5026753;28;20178;-71
2021/07/18 03:54:27;;;;;;;11.97;6.63;;;16.80;99.90;;;;;;5028194;28;20256;-72
2021/07/18 03:56:52;;;;;;;6.10;5.50;;;16.80;99.90;;;;;;5031694;28;20209;-72
2021/07/18 03:59:18;;;;;;;8.00;6.80;;;16.80;99.90;;;;;;5028641;28;20271;-72
2021/07/18 04:01:44;;;;;;;9.00;7.53;;;16.80;99.90;;;;;;5028213;28;20183;-71
2021/07/18 04:04:09;;;;;;;7.80;6.70;;;16.80;99.90;;;;;;5029132;28;20192;-71
2021/07/18 04:06:35;;;;;;;16.07;8.33;;;16.80;99.90;;;;;;5031869;28;20180;-71
2021/07/18 04:09:01;;;;;;;8.10;6.90;;;16.80;99.90;;;;;;5021308;28;20178;-71
2021/07/18 04:11:26;;;;;;;6.53;6.00;;;16.80;99.90;;;;;;5029633;28;20639;-71
2021/07/18 04:13:52;;;;;;;10.50;7.07;;;16.90;99.90;;;;;;5029673;28;20285;-71
2021/07/18 04:16:18;;;;;;;10.50;6.63;;;16.90;99.90;;;;;;5031455;28;20193;-71
2021/07/18 04:18:43;;;;;;;7.13;6.50;;;16.90;99.90;;;;;;5024661;28;20715;-71
2021/07/18 04:21:09;;;;;;;8.30;6.70;;;16.90;99.90;;;;;;5025785;28;20191;-71
2021/07/18 04:23:34;;;;;;;7.67;6.70;;;17.00;99.90;;;;;;5022274;28;20205;-72
2021/07/18 04:26:00;;;;;;;14.97;7.53;;;17.00;99.90;;;;;;5030538;28;20178;-72
2021/07/18 04:28:26;;;;;;;11.37;8.13;;;17.00;99.90;;;;;;5029670;28;20265;-72
2021/07/18 04:30:51;;;;;;;11.73;8.07;;;17.10;99.90;;;;;;5023752;28;20225;-72
2021/07/18 04:33:17;;;;;;;8.97;7.53;;;17.10;99.90;;;;;;5024941;28;20619;-72
2021/07/18 04:35:42;;;;;;;9.67;7.90;;;17.10;99.90;;;;;;5027185;28;20628;-71
2021/07/18 04:38:08;;;;;;;15.00;8.47;;;17.10;99.90;;;;;;5030579;28;20188;-71
2021/07/18 04:40:34;;;;;;;11.63;7.87;;;17.20;99.90;;;;;;5027749;28;20184;-71
2021/07/18 04:43:01;;;;;;;12.97;7.60;;;17.20;99.90;;;;;;5025857;28;20218;-71
2021/07/18 04:45:26;;;;;;;10.30;8.83;;;17.20;99.90;;;;;;5026922;28;20429;-71
2021/07/18 04:47:57;;;;;;;13.73;8.87;;;17.20;99.90;;;;;;5029460;28;20490;-71
2021/07/18 04:50:24;;;;;;;12.30;7.80;;;17.30;99.90;;;;;;5029910;28;20665;-71
2021/07/18 04:52:49;;;;;;;10.30;7.10;;;17.30;99.90;;;;;;5027894;28;20733;-72
2021/07/18 04:55:16;;;;;;;9.60;7.33;;;17.40;99.90;;;;;;5027855;28;20523;-71
2021/07/18 04:57:42;;;;;;;10.73;8.07;;;17.40;99.90;;;;;;5028401;28;20174;-71
2021/07/18 05:00:12;;;;;;;11.77;6.30;;;17.50;99.90;;;;;;5022526;28;20436;-72
2021/07/18 05:02:39;;;;;;;9.80;5.27;;;17.50;99.90;;;;;;5028486;28;20785;-71
2021/07/18 05:05:08;;;;;;;9.33;6.63;;;17.60;99.90;;;;;;5027422;28;20470;-73
2021/07/18 05:07:48;;;;;;;8.03;6.83;;;17.60;99.90;;;;;;5029255;28;20440;-71
2021/07/18 05:10:14;;;;;;;9.00;5.70;;;17.70;99.90;;;;;;5023271;28;20480;-71
2021/07/18 05:12:40;;;;;;;9.20;6.20;;;17.70;99.90;;;;;;5026758;28;20431;-71
2021/07/18 05:15:06;;;;;;;10.67;6.57;;;17.70;99.90;;;;;;5025783;28;20521;-71
2021/07/18 05:17:32;;;;;;;5.40;4.90;;;17.90;99.90;;;;;;5025539;28;20209;-71
2021/07/18 05:19:58;;;;;;;4.40;4.00;;;17.90;99.90;;;;;;5028670;28;20732;-71
2021/07/18 05:22:25;;;;;;;4.77;4.37;;;18.00;99.90;;;;;;5026418;28;20235;-71
2021/07/18 05:24:52;;;;;;;7.97;5.13;;;18.00;99.90;;;;;;5027216;28;20436;-71
2021/07/18 05:27:21;;;;;;;9.83;5.13;;;18.10;99.90;;;;;;5024452;28;20937;-71
2021/07/18 05:29:47;;;;;;;7.60;4.67;;;18.20;99.90;;;;;;5029742;28;20479;-71
2021/07/18 05:32:13;;;;;;;4.43;3.73;;;18.20;99.90;;;;;;5027623;28;20908;-71
2021/07/18 05:34:39;;;;;;;4.73;4.10;;;18.30;99.90;;;;;;5023409;28;20523;-72
2021/07/18 05:37:08;;;;;;;7.87;4.70;;;18.30;99.90;;;;;;5024725;28;20264;-71
2021/07/18 05:39:34;;;;;;;6.87;3.87;;;18.20;99.90;;;;;;5026955;28;20185;-71
2021/07/18 05:41:59;;;;;;;9.10;4.53;;;18.20;99.90;;;;;;5024472;28;20789;-72
2021/07/18 05:44:26;;;;;;;4.53;4.13;;;18.20;99.90;;;;;;5024701;28;20225;-71
2021/07/18 05:46:52;;;;;;;6.00;4.27;;;18.30;99.90;;;;;;5025840;28;20209;-72
2021/07/18 05:49:18;;;;;;;5.00;3.77;;;18.40;99.90;;;;;;5028154;28;20503;-71
2021/07/18 05:51:44;;;;;;;4.07;3.77;;;18.50;99.90;;;;;;5019225;28;20185;-71
2021/07/18 05:54:09;;;;;;;6.53;3.90;;;18.50;99.90;;;;;;5024793;28;20695;-71
2021/07/18 05:56:35;;;;;;;7.07;4.40;;;18.60;99.90;;;;;;5025040;28;20468;-71
2021/07/18 05:59:01;;;;;;;5.10;3.97;;;18.80;99.90;;;;;;5026891;28;20182;-71
2021/07/18 06:01:27;;;;;;;8.63;4.47;;;18.80;99.90;;;;;;5022268;28;20763;-72
2021/07/18 06:03:52;;;;;;;8.17;4.53;;;18.80;99.90;;;;;;5022263;28;20189;-72
2021/07/18 06:06:18;;;;;;;5.73;4.00;;;18.60;99.90;;;;;;5028320;28;20173;-72
2021/07/18 06:08:44;;;;;;;5.03;4.63;;;18.70;99.90;;;;;;5020950;28;20184;-71
2021/07/18 06:11:09;;;;;;;4.17;3.70;;;18.70;99.90;;;;;;5030963;28;20198;-71
2021/07/18 06:13:35;;;;;;;4.47;3.73;;;18.70;99.90;;;;;;5028161;28;20260;-71
2021/07/18 06:16:01;;;;;;;5.60;3.80;;;18.80;99.90;;;;;;5023982;28;20240;-71
2021/07/18 06:18:26;;;;;;;5.13;4.07;;;18.80;99.90;;;;;;5028441;28;20300;-71
2021/07/18 06:20:52;;;;;;;4.23;3.83;;;18.80;99.90;;;;;;5030705;28;20260;-71
2021/07/18 06:23:17;;;;;;;8.10;4.40;;;18.80;99.90;;;;;;5021631;28;20268;-71
2021/07/18 06:25:43;;;;;;;3.70;3.40;;;18.90;99.90;;;;;;5027520;28;20185;-71
2021/07/18 06:28:09;;;;;;;3.40;3.20;;;18.80;99.90;;;;;;5026992;28;20185;-71
2021/07/18 06:30:34;;;;;;;4.10;3.60;;;18.80;99.90;;;;;;5023196;28;20539;-71
2021/07/18 06:33:00;;;;;;;10.27;3.60;;;18.90;99.90;;;;;;5028083;28;20178;-71
2021/07/18 06:35:27;;;;;;;4.80;3.90;;;19.10;99.90;;;;;;5030748;28;20174;-71
2021/07/18 06:37:52;;;;;;;5.33;3.93;;;19.20;99.90;;;;;;5026406;28;20174;-72
2021/07/18 06:40:18;;;;;;;4.03;3.20;;;19.30;99.90;;;;;;5033591;28;20444;-71
2021/07/18 06:42:44;;;;;;;9.00;3.37;;;19.40;99.90;;;;;;5025221;28;20182;-71
2021/07/18 06:45:10;;;;;;;3.83;3.47;;;19.50;99.90;;;;;;5026278;28;20221;-71
2021/07/18 06:47:36;;;;;;;5.80;3.23;;;19.50;99.90;;;;;;5028353;28;20209;-71
2021/07/18 06:50:02;;;;;;;3.77;3.03;;;19.60;99.90;;;;;;5028634;28;20491;-71
2021/07/18 06:52:28;;;;;;;3.07;2.87;;;19.70;99.90;;;;;;5026842;28;20269;-72
2021/07/18 06:54:54;;;;;;;4.30;3.50;;;19.70;99.90;;;;;;5025816;28;20981;-71
2021/07/18 06:57:20;;;;;;;4.97;3.20;;;19.80;99.90;;;;;;5026044;28;20752;-71
2021/07/18 06:59:49;;;;;;;3.17;2.60;;;19.80;99.90;;;;;;5022404;28;20427;-71
2021/07/18 07:02:15;;;;;;;3.33;2.70;;;19.80;99.90;;;;;;5021423;28;20442;-70
2021/07/18 07:04:40;;;;;;;9.97;3.07;;;19.70;99.90;;;;;;5026341;28;20432;-70
2021/07/18 07:07:06;;;;;;;3.50;2.70;;;19.80;99.90;;;;;;5028160;28;20679;-72
2021/07/18 07:09:32;;;;;;;3.20;2.90;;;19.80;99.90;;;;;;5028884;28;20268;-70
2021/07/18 07:11:57;;;;;;;3.20;2.40;;;19.90;99.90;;;;;;5026146;28;20183;-70
2021/07/18 07:14:23;;;;;;;5.40;2.93;;;19.90;99.90;;;;;;5027407;28;20178;-70
2021/07/18 07:16:49;;;;;;;4.63;3.17;;;19.90;99.90;;;;;;5024835;28;20188;-70
2021/07/18 07:19:14;;;;;;;4.27;2.43;;;19.90;99.90;;;;;;5025655;28;20650;-71
2021/07/18 07:21:40;;;;;;;6.73;2.80;;;20.10;99.90;;;;;;5028087;28;20626;-70
2021/07/18 07:24:06;;;;;;;5.03;2.70;;;20.10;99.90;;;;;;5012547;28;20499;-71
2021/07/18 07:26:32;;;;;;;3.37;2.80;;;20.10;99.90;;;;;;5025140;28;20182;-71
2021/07/18 07:28:58;;;;;;;3.10;2.90;;;20.10;99.90;;;;;;5030994;28;20191;-70
2021/07/18 07:31:24;;;;;;;4.03;2.80;;;20.10;99.90;;;;;;5018860;28;20425;-73
2021/07/18 07:33:49;;;;;;;6.83;2.90;;;20.10;99.90;;;;;;5016381;28;20173;-70
2021/07/18 07:36:17;;;;;;;3.60;3.30;;;20.20;99.90;;;;;;5019175;28;21160;-74
2021/07/18 07:38:42;;;;;;;4.53;3.00;;;20.20;99.90;;;;;;5024331;28;20206;-74
2021/07/18 07:41:08;;;;;;;3.83;2.80;;;20.30;99.90;;;;;;5015449;28;20469;-75
2021/07/18 07:43:34;;;;;;;4.63;4.23;;;20.30;99.90;;;;;;5007965;28;20252;-74
2021/07/18 07:46:00;;;;;;;6.00;2.70;;;20.30;99.90;;;;;;5018073;28;20440;-74
2021/07/18 07:48:26;;;;;;;4.70;2.37;;;20.30;99.90;;;;;;5013662;28;20186;-77
2021/07/18 07:50:52;;;;;;;2.80;2.53;;;20.40;99.90;;;;;;5023284;28;20202;-71
2021/07/18 07:53:18;;;;;;;2.93;2.63;;;20.50;99.90;;;;;;5026120;28;20649;-71
2021/07/18 07:55:44;;;;;;;2.83;2.50;;;20.60;99.90;;;;;;5014053;28;20436;-71
2021/07/18 07:58:10;;;;;;;7.83;2.80;;;20.70;99.90;;;;;;5019522;28;20193;-71
2021/07/18 08:00:37;;;;;;;3.13;2.67;;;20.80;99.90;;;;;;5016955;28;21332;-72
2021/07/18 08:03:03;;;;;;;2.43;2.20;;;20.90;99.90;;;;;;5011784;28;20441;-72
2021/07/18 08:05:29;;;;;;;2.30;2.10;;;21.10;99.90;;;;;;5017425;28;21193;-72
2021/07/18 08:07:54;;;;;;;2.57;2.37;;;21.10;99.90;;;;;;5017788;28;20437;-72
2021/07/18 08:10:22;;;;;;;3.83;1.87;;;21.20;99.90;;;;;;5017845;28;20582;-72
2021/07/18 08:12:48;;;;;;;4.90;2.63;;;21.30;99.90;;;;;;5021334;28;20634;-72
2021/07/18 08:15:16;;;;;;;5.70;2.63;;;21.30;99.90;;;;;;5024183;28;20906;-71
2021/07/18 08:17:42;;;;;;;5.50;2.17;;;21.50;99.90;;;;;;5030348;28;20519;-71
2021/07/18 08:20:11;;;;;;;3.30;2.20;;;21.50;99.90;;;;;;5028279;28;20428;-71
2021/07/18 08:22:37;;;;;;;3.10;2.07;;;21.70;99.90;;;;;;5007792;28;20772;-72
2021/07/18 08:25:04;;;;;;;2.20;1.80;;;21.80;99.90;;;;;;5010055;28;20452;-72
2021/07/18 08:27:29;;;;;;;6.33;2.13;;;21.90;99.90;;;;;;5017916;28;20191;-72
2021/07/18 08:29:55;;;;;;;3.63;2.33;;;21.90;99.90;;;;;;5012188;28;20460;-73
2021/07/18 08:32:20;;;;;;;2.47;2.27;;;21.90;99.90;;;;;;5017947;28;20282;-73
2021/07/18 08:34:46;;;;;;;10.40;2.73;;;21.90;99.90;;;;;;5015685;28;20201;-73
2021/07/18 08:37:12;;;;;;;3.50;2.13;;;22.00;99.90;;;;;;5011926;28;20174;-72
2021/07/18 08:39:37;;;;;;;3.83;2.00;;;22.20;99.90;;;;;;5018115;28;20187;-73
2021/07/18 08:42:03;;;;;;;1.80;1.70;;;22.40;99.90;;;;;;5019159;28;20178;-73
2021/07/18 08:44:29;;;;;;;5.23;2.80;;;22.50;99.90;;;;;;5024451;28;20625;-73
2021/07/18 08:46:54;;;;;;;2.63;2.00;;;22.60;99.90;;;;;;5015608;28;21123;-73
2021/07/18 08:49:20;;;;;;;2.07;1.70;;;22.80;99.90;;;;;;5013100;28;20663;-73
2021/07/18 08:51:46;;;;;;;2.03;1.93;;;22.70;99.90;;;;;;5015712;28;20653;-73
2021/07/18 08:54:15;;;;;;;2.03;1.93;;;22.70;99.90;;;;;;5035886;28;20183;-73
2021/07/18 08:56:41;;;;;;;2.07;1.93;;;22.90;99.90;;;;;;5041661;28;20508;-73
2021/07/18 08:59:08;;;;;;;1.70;1.60;;;23.10;99.90;;;;;;5037905;28;20423;-74
2021/07/18 09:01:34;;;;;;;2.33;2.13;;;23.20;99.90;;;;;;5016257;28;20183;-74
2021/07/18 09:04:00;;;;;;;2.53;2.37;;;23.10;99.90;;;;;;5019525;28;20522;-75
2021/07/18 09:06:44;;;;;;;2.47;2.03;;;23.00;99.90;;;;;;5016595;28;20443;-74
2021/07/18 09:09:13;;;;;;;2.57;1.77;;;22.90;99.90;;;;;;5023575;28;20433;-74
2021/07/18 09:11:39;;;;;;;2.33;2.17;;;22.90;99.90;;;;;;5006584;28;20429;-74
2021/07/18 09:14:06;;;;;;;2.23;2.00;;;23.10;99.90;;;;;;5021071;28;20464;-74
2021/07/18 09:16:42;;;;;;;1.97;1.83;;;23.40;99.90;;;;;;5009534;28;20444;-74
2021/07/18 09:19:19;;;;;;;4.97;2.17;;;23.40;99.90;;;;;;5015942;28;20547;-73
2021/07/18 09:22:00;;;;;;;6.30;2.10;;;23.10;99.90;;;;;;5020331;28;20768;-74
2021/07/18 09:24:29;;;;;;;4.00;1.90;;;23.00;99.90;;;;;;5016176;28;20428;-74
2021/07/18 09:27:03;;;;;;;4.93;2.00;;;23.10;99.90;;;;;;5010512;28;20497;-74
2021/07/18 09:29:29;;;;;;;2.00;1.90;;;23.40;99.90;;;;;;5010319;28;20475;-74
2021/07/18 09:32:07;;;;;;;3.23;1.97;;;23.80;99.90;;;;;;5033810;28;20550;-73
2021/07/18 09:34:34;;;;;;;3.07;2.10;;;23.90;99.90;;;;;;5022931;28;20437;-74
2021/07/18 09:37:27;;;;;;;2.03;1.67;;;23.80;99.90;;;;;;5008878;28;20458;-74
2021/07/18 09:40:08;;;;;;;2.37;2.00;;;23.80;99.90;;;;;;5008300;28;20810;-73
2021/07/18 09:42:51;;;;;;;3.50;1.87;;;24.00;99.90;;;;;;5010008;28;20447;-74
2021/07/18 09:45:30;;;;;;;56.27;50.30;;;24.20;99.90;;;;;;5023068;28;20432;-73
2021/07/18 09:48:06;;;;;;;23.97;21.50;;;24.20;99.90;;;;;;5015348;28;20425;-74
2021/07/18 09:50:35;;;;;;;8.57;7.60;;;23.90;99.90;;;;;;5027806;28;20545;-72
2021/07/18 09:53:21;;;;;;;39.53;35.47;;;23.80;99.90;;;;;;5029237;28;20457;-72
2021/07/18 09:56:04;;;;;;;776.27;702.53;;;23.80;99.90;;;;;;5030051;28;20486;-74
2021/07/18 09:58:31;;;;;;;29.57;26.83;;;24.10;99.90;;;;;;5017478;28;20427;-73
2021/07/18 10:00:59;;;;;;;4.90;2.60;;;24.40;99.90;;;;;;5013825;28;20565;-74
2021/07/18 10:03:27;;;;;;;3.30;2.50;;;24.50;99.90;;;;;;5015622;28;20422;-73
2021/07/18 10:06:18;;;;;;;2.10;1.90;;;24.40;99.90;;;;;;5034864;28;20440;-74
2021/07/18 10:08:49;;;;;;;2.40;2.00;;;24.50;99.90;;;;;;5032245;28;20523;-74
2021/07/18 10:11:17;;;;;;;4.13;2.30;;;24.80;99.90;;;;;;5030515;28;20449;-75
2021/07/18 10:13:44;;;;;;;7.33;4.80;;;25.10;99.90;;;;;;5038337;28;20436;-75
2021/07/18 10:16:11;;;;;;;2.53;1.90;;;25.10;99.90;;;;;;5028502;28;20424;-75
2021/07/18 10:18:42;;;;;;;4.10;2.17;;;25.20;99.90;;;;;;5023833;28;20432;-76
2021/07/18 10:21:11;;;;;;;2.20;2.10;;;25.00;99.90;;;;;;5020657;28;20433;-77
2021/07/18 10:23:39;;;;;;;3.53;2.20;;;24.90;99.90;;;;;;5015453;28;20470;-77
2021/07/18 10:26:06;;;;;;;3.87;1.80;;;25.20;99.90;;;;;;5021369;28;20434;-77
2021/07/18 10:28:32;;;;;;;2.27;1.60;;;25.60;99.90;;;;;;5022536;28;20586;-77
2021/07/18 10:31:04;;;;;;;3.70;1.80;;;25.60;99.90;;;;;;5014592;28;20525;-77
2021/07/18 10:33:31;;;;;;;5.27;4.33;;;25.60;99.90;;;;;;5012635;28;21308;-78
2021/07/18 10:35:57;;;;;;;3.70;2.27;;;25.60;99.90;;;;;;5019947;28;20466;-78
2021/07/18 10:38:25;;;;;;;2.13;1.93;;;25.80;99.90;;;;;;5021854;28;20550;-78
2021/07/18 10:40:53;;;;;;;3.13;1.60;;;26.00;99.90;;;;;;5018986;28;20444;-77
2021/07/18 10:43:44;;;;;;;3.10;1.33;;;26.10;99.90;;;;;;5021247;28;20972;-77
2021/07/18 10:46:12;;;;;;;4.97;2.80;;;26.10;99.90;;;;;;5021548;28;21396;-77
2021/07/18 10:48:52;;;;;;;3.10;1.80;;;26.00;99.90;;;;;;5023971;28;20518;-78
2021/07/18 10:51:36;;;;;;;3.20;1.90;;;26.10;99.90;;;;;;5031355;28;20551;-78
2021/07/18 10:54:19;;;;;;;1.73;1.50;;;26.10;99.90;;;;;;5030084;28;20839;-74
2021/07/18 10:56:47;;;;;;;3.70;2.07;;;26.10;99.90;;;;;;5033360;28;20425;-73
2021/07/18 10:59:39;;;;;;;3.73;1.70;;;26.10;99.90;;;;;;5027498;28;20440;-77
2021/07/18 11:02:08;;;;;;;2.50;1.73;;;26.20;99.90;;;;;;5022394;28;20447;-76
2021/07/18 11:04:51;;;;;;;1.83;1.70;;;25.90;99.90;;;;;;5025998;28;21016;-76
2021/07/18 11:07:20;;;;;;;2.63;2.00;;;25.70;99.90;;;;;;5027930;28;20430;-75
2021/07/18 11:09:47;;;;;;;4.43;1.70;;;25.80;99.90;;;;;;5023541;28;20954;-75
2021/07/18 11:12:26;;;;;;;4.50;1.83;;;26.10;99.90;;;;;;5024618;28;20781;-75
2021/07/18 11:14:52;;;;;;;1.97;1.60;;;26.10;99.90;;;;;;5026640;28;20435;-75
2021/07/18 11:17:26;;;;;;;1.93;1.70;;;26.00;99.90;;;;;;5030153;28;20435;-75
2021/07/18 11:20:00;;;;;;;1.80;1.57;;;25.90;99.90;;;;;;5028329;28;20519;-75
2021/07/18 11:22:57;;;;;;;2.70;2.20;;;26.20;99.90;;;;;;5024276;28;20442;-75
2021/07/18 11:25:43;;;;;;;4.30;2.37;;;26.80;99.90;;;;;;5027933;28;20433;-76
2021/07/18 11:28:28;;;;;;;1.87;1.73;;;27.00;99.90;;;;;;5027911;28;20445;-75
2021/07/18 11:31:13;;;;;;;5.67;2.23;;;27.00;99.90;;;;;;5027839;28;20831;-76
2021/07/18 11:33:45;;;;;;;5.47;1.80;;;26.90;99.90;;;;;;5015571;28;20416;-76
2021/07/18 11:36:14;;;;;;;3.00;1.40;;;27.10;99.90;;;;;;5021154;28;20939;-76
2021/07/18 11:38:39;;;;;;;4.23;1.80;;;27.20;99.90;;;;;;5018653;28;20484;-75
2021/07/18 11:41:24;;;;;;;5.13;3.33;;;26.70;99.90;;;;;;5027164;28;23146;-76
2021/07/18 11:43:53;;;;;;;2.33;2.13;;;26.40;99.90;;;;;;5024193;28;20280;-76
2021/07/18 11:46:21;;;;;;;2.67;1.50;;;26.70;99.90;;;;;;5028031;28;20432;-76
2021/07/18 11:48:49;;;;;;;4.37;2.50;;;27.10;99.90;;;;;;5018046;28;20917;-76
2021/07/18 11:51:18;;;;;;;2.80;1.33;;;27.40;99.90;;;;;;5019212;28;21009;-76
2021/07/18 11:53:55;;;;;;;3.60;2.10;;;27.50;99.90;;;;;;5024218;28;20435;-75
2021/07/18 11:56:26;;;;;;;1.80;1.70;;;27.50;99.90;;;;;;5030557;28;20429;-76
2021/07/18 11:58:57;;;;;;;2.20;2.10;;;27.30;99.90;;;;;;5030741;28;20440;-75
2021/07/18 12:01:26;;;;;;;2.80;1.70;;;27.20;99.90;;;;;;5026820;28;20432;-77
2021/07/18 12:03:52;;;;;;;2.23;1.70;;;27.00;99.90;;;;;;5027197;28;20441;-75
2021/07/18 12:06:19;;;;;;;2.80;1.40;;;26.70;99.90;;;;;;5024739;28;20444;-75
2021/07/18 12:08:45;;;;;;;4.43;1.93;;;26.60;99.90;;;;;;5006519;28;20437;-75
2021/07/18 12:11:13;;;;;;;4.00;1.50;;;26.60;99.90;;;;;;5015313;28;20848;-75
2021/07/18 12:13:47;;;;;;;5.33;1.80;;;26.70;99.90;;;;;;5020764;28;20432;-75
2021/07/18 12:16:14;;;;;;;2.23;1.73;;;26.60;99.90;;;;;;5025328;28;20901;-77
2021/07/18 12:18:50;;;;;;;1.60;1.37;;;26.70;99.90;;;;;;5021894;28;20929;-75
2021/07/18 12:21:21;;;;;;;2.60;1.63;;;26.90;99.90;;;;;;5028968;28;20449;-75
2021/07/18 12:24:17;;;;;;;4.53;1.47;;;27.20;99.90;;;;;;5023820;28;20436;-73
2021/07/18 12:26:53;;;;;;;1.57;1.40;;;27.60;99.90;;;;;;5019100;28;20743;-74
2021/07/18 12:29:20;;;;;;;2.30;1.83;;;27.70;99.90;;;;;;5018540;28;20427;-74
2021/07/18 12:31:48;;;;;;;1.93;1.40;;;27.50;99.90;;;;;;5021400;28;20432;-75
2021/07/18 12:34:15;;;;;;;1.93;1.33;;;27.30;99.90;;;;;;5021964;28;20438;-76
2021/07/18 12:36:52;;;;;;;2.80;2.00;;;27.10;99.90;;;;;;5014243;28;20460;-77
2021/07/18 12:39:19;;;;;;;1.67;1.57;;;27.20;99.90;;;;;;5020106;28;20443;-77
2021/07/18 12:41:45;;;;;;;2.10;1.80;;;27.30;99.90;;;;;;5016305;28;20433;-76
2021/07/18 12:44:15;;;;;;;1.97;1.80;;;27.30;99.90;;;;;;5023710;28;21920;-75
2021/07/18 12:46:42;;;;;;;2.40;1.87;;;27.20;99.90;;;;;;5024008;28;20852;-76
2021/07/18 12:49:11;;;;;;;3.70;1.20;;;27.00;99.90;;;;;;5015529;28;20483;-77